createdAt,value
2022-12-28T00:03:47.506Z,16.50
2022-12-28T00:08:49.611Z,16.50
2022-12-28T00:13:51.328Z,16.50
2022-12-28T00:18:53.434Z,16.50
2022-12-28T00:23:57.527Z,16.50
2022-12-28T00:29:04.631Z,16.50
2022-12-28T00:34:07.191Z,16.50
2022-12-28T00:39:08.919Z,16.50
2022-12-28T00:44:10.752Z,16.50
2022-12-28T00:49:12.315Z,16.50
2022-12-28T00:54:13.906Z,16.50
2022-12-28T00:59:15.534Z,16.50
2022-12-28T01:04:17.228Z,16.50
2022-12-28T01:09:19.041Z,16.50
2022-12-28T01:14:20.927Z,16.50
2022-12-28T01:19:22.853Z,16.50
2022-12-28T01:24:24.561Z,16.50
2022-12-28T01:29:26.375Z,16.40
2022-12-28T01:34:28.147Z,16.40
2022-12-28T01:39:29.714Z,16.40
2022-12-28T01:44:40.259Z,16.40
2022-12-28T01:49:45.106Z,16.50
2022-12-28T01:54:50.853Z,16.50
2022-12-28T02:00:04.095Z,16.50
2022-12-28T02:05:06.035Z,16.50
2022-12-28T02:10:44.264Z,16.40
2022-12-28T02:15:29.797Z,16.40
2022-12-28T02:20:36.724Z,16.40
2022-12-28T02:25:38.298Z,16.40
2022-12-28T02:30:47.842Z,16.50
2022-12-28T02:35:54.586Z,16.40
2022-12-28T02:40:59.737Z,16.50
2022-12-28T02:46:30.147Z,16.50
2022-12-28T02:51:43.049Z,16.40
2022-12-28T02:56:55.379Z,16.40
2022-12-28T03:02:03.771Z,16.40
2022-12-28T03:07:24.042Z,16.40
2022-12-28T03:12:31.324Z,16.40
2022-12-28T03:17:53.329Z,16.40
2022-12-28T03:23:14.911Z,16.40
2022-12-28T03:28:37.978Z,16.40
2022-12-28T03:33:40.955Z,16.40
2022-12-28T03:39:03.538Z,16.40
2022-12-28T03:44:11.106Z,16.40
2022-12-28T03:49:12.831Z,16.40
2022-12-28T03:54:15.332Z,16.40
2022-12-28T03:59:17.845Z,16.40
2022-12-28T04:04:19.587Z,16.40
2022-12-28T04:09:22.392Z,16.40
2022-12-28T04:14:23.991Z,16.40
2022-12-28T04:19:25.601Z,16.40
2022-12-28T04:24:27.399Z,16.40
2022-12-28T04:29:29.055Z,16.40
2022-12-28T04:34:30.722Z,16.40
2022-12-28T04:39:54.081Z,16.40
2022-12-28T04:44:54.290Z,16.40
2022-12-28T06:07:19.970Z,16.40
2022-12-28T06:12:21.603Z,16.40
2022-12-28T06:17:23.165Z,16.40
2022-12-28T06:22:24.726Z,16.50
2022-12-28T06:27:26.501Z,16.70
2022-12-28T06:32:28.296Z,16.90
2022-12-28T06:37:29.853Z,17.20
2022-12-28T06:42:31.417Z,17.40
2022-12-28T06:47:36.050Z,17.60
2022-12-28T06:52:37.702Z,17.70
2022-12-28T06:57:39.278Z,17.70
2022-12-28T07:02:41.084Z,17.80
2022-12-28T07:07:45.039Z,17.80
2022-12-28T07:12:46.745Z,17.90
2022-12-28T07:17:48.380Z,17.90
2022-12-28T07:22:49.949Z,17.80
2022-12-28T07:27:51.559Z,17.70
2022-12-28T07:32:53.335Z,17.70
2022-12-28T07:37:54.898Z,17.60
2022-12-28T07:42:56.627Z,17.50
2022-12-28T07:47:58.251Z,17.40
2022-12-28T07:53:01.334Z,17.30
2022-12-28T07:58:02.950Z,17.20
2022-12-28T08:03:04.492Z,17.10
2022-12-28T08:08:06.151Z,17.10
2022-12-28T08:13:07.722Z,17.00
2022-12-28T08:18:09.393Z,16.90
2022-12-28T08:23:11.010Z,16.90
2022-12-28T08:28:12.723Z,16.90
2022-12-28T08:33:14.460Z,16.90
2022-12-28T08:38:16.282Z,16.80
2022-12-28T08:43:17.960Z,16.80
2022-12-28T08:48:19.525Z,16.70
2022-12-28T08:53:24.369Z,16.70
2022-12-28T08:58:25.924Z,16.70
2022-12-28T09:03:27.862Z,16.70
2022-12-28T09:08:29.512Z,16.70
2022-12-28T09:13:32.229Z,16.70
2022-12-28T09:18:34.115Z,16.80
2022-12-28T09:23:35.838Z,16.90
2022-12-28T09:28:37.918Z,17.10
2022-12-28T09:34:34.342Z,17.20
2022-12-28T09:39:22.665Z,17.50
2022-12-28T09:44:33.734Z,17.70
2022-12-28T09:49:43.923Z,17.90
2022-12-28T09:54:45.498Z,18.10
2022-12-28T09:59:47.983Z,18.10
2022-12-28T10:04:50.049Z,18.10
2022-12-28T10:09:52.049Z,18.10
2022-12-28T10:14:53.668Z,18.20
2022-12-28T10:19:56.714Z,18.20
2022-12-28T10:24:58.433Z,18.30
2022-12-28T10:30:01.264Z,18.40
2022-12-28T10:35:03.411Z,18.50
2022-12-28T10:40:18.173Z,18.40
2022-12-28T10:45:21.686Z,18.50
2022-12-28T10:50:41.820Z,18.50
2022-12-28T10:55:43.839Z,18.60
2022-12-28T11:00:53.193Z,18.60
2022-12-28T11:06:07.619Z,18.70
2022-12-28T11:11:27.598Z,18.70
2022-12-28T11:16:30.909Z,18.60
2022-12-28T11:21:33.367Z,18.50
2022-12-28T11:26:35.031Z,18.40
2022-12-28T11:31:39.813Z,18.30
2022-12-28T11:36:41.424Z,18.20
2022-12-28T11:41:51.236Z,18.10
2022-12-28T11:47:17.770Z,18.10
2022-12-28T11:52:34.073Z,18.00
2022-12-28T11:57:39.680Z,17.90
2022-12-28T12:02:41.473Z,17.90
2022-12-28T12:07:48.278Z,17.80
2022-12-28T12:12:51.796Z,17.80
2022-12-28T12:18:04.174Z,17.70
2022-12-28T12:23:08.109Z,17.70
2022-12-28T12:28:28.979Z,17.60
2022-12-28T12:33:34.060Z,17.60
2022-12-28T12:38:50.931Z,17.60
2022-12-28T12:44:07.982Z,17.50
2022-12-28T12:49:24.590Z,17.50
2022-12-28T12:54:52.763Z,17.50
2022-12-28T13:00:08.925Z,17.40
2022-12-28T13:05:21.593Z,17.40
2022-12-28T13:10:26.259Z,17.30
2022-12-28T13:15:28.460Z,17.30
2022-12-28T13:20:30.144Z,17.30
2022-12-28T13:25:32.982Z,17.40
2022-12-28T13:30:34.650Z,17.40
2022-12-28T13:35:36.258Z,17.60
2022-12-28T13:40:38.512Z,17.80
2022-12-28T13:45:40.122Z,18.00
2022-12-28T13:50:43.562Z,18.30
2022-12-28T13:55:52.845Z,18.50
2022-12-28T14:00:56.091Z,18.60
2022-12-28T14:06:00.244Z,18.70
2022-12-28T14:11:02.561Z,18.70
2022-12-28T14:16:04.786Z,18.60
2022-12-28T14:21:07.151Z,18.50
2022-12-28T14:26:26.690Z,18.50
2022-12-28T14:31:30.061Z,18.40
2022-12-28T14:36:41.233Z,18.20
2022-12-28T14:41:45.576Z,18.10
2022-12-28T14:46:47.760Z,18.10
2022-12-28T14:51:49.410Z,17.90
2022-12-28T14:57:02.503Z,17.80
2022-12-28T15:02:04.672Z,17.70
2022-12-28T15:07:07.507Z,17.70
2022-12-28T15:12:10.304Z,17.60
2022-12-28T15:17:12.633Z,17.70
2022-12-28T15:22:14.263Z,17.60
2022-12-28T15:27:15.863Z,17.60
2022-12-28T15:32:19.688Z,17.60
2022-12-28T15:37:21.312Z,17.60
2022-12-28T15:42:23.088Z,17.60
2022-12-28T15:47:25.165Z,17.50
2022-12-28T15:52:27.023Z,17.50
2022-12-28T15:57:28.767Z,17.50
2022-12-28T16:02:30.616Z,17.50
2022-12-28T16:07:32.391Z,17.50
2022-12-28T16:12:34.223Z,17.50
2022-12-28T16:17:41.146Z,17.40
2022-12-28T16:22:48.566Z,17.50
2022-12-28T16:27:50.494Z,17.50
2022-12-28T16:32:52.075Z,17.60
2022-12-28T16:37:53.744Z,17.70
2022-12-28T16:42:55.285Z,17.90
2022-12-28T16:47:56.830Z,18.10
2022-12-28T16:53:00.892Z,18.20
2022-12-28T16:58:02.532Z,18.30
2022-12-28T17:03:04.250Z,18.30
2022-12-28T17:08:06.062Z,18.20
2022-12-28T17:13:07.788Z,18.20
2022-12-28T17:18:09.929Z,18.10
2022-12-28T17:23:11.617Z,18.10
2022-12-28T17:28:13.821Z,18.10
2022-12-28T17:33:15.531Z,18.10
2022-12-28T17:38:17.954Z,18.10
2022-12-28T17:43:19.727Z,18.20
2022-12-28T17:48:27.062Z,18.20
2022-12-28T17:53:29.036Z,18.20
2022-12-28T17:58:30.718Z,18.30
2022-12-28T18:03:34.216Z,18.40
2022-12-28T18:08:36.014Z,18.40
2022-12-28T18:13:37.977Z,18.40
2022-12-28T18:18:39.745Z,18.30
2022-12-28T18:23:44.862Z,18.30
2022-12-28T18:28:46.664Z,18.20
2022-12-28T18:33:48.326Z,18.20
2022-12-28T18:38:49.918Z,18.20
2022-12-28T18:43:51.618Z,18.10
2022-12-28T18:48:53.235Z,18.10
2022-12-28T18:53:54.955Z,18.10
2022-12-28T18:58:56.675Z,18.10
2022-12-28T19:03:59.235Z,18.10
2022-12-28T19:09:01.348Z,18.10
2022-12-28T19:14:07.039Z,18.20
2022-12-28T19:19:08.585Z,18.20
2022-12-28T19:24:12.642Z,18.20
2022-12-28T19:29:15.477Z,18.20
2022-12-28T19:34:17.662Z,18.20
2022-12-28T19:39:19.664Z,18.20
2022-12-28T19:44:21.260Z,18.10
2022-12-28T19:49:22.845Z,18.10
2022-12-28T19:54:24.421Z,18.10
2022-12-28T19:59:26.006Z,18.10
2022-12-28T20:04:27.922Z,18.00
2022-12-28T20:09:29.473Z,18.00
2022-12-28T20:14:31.242Z,18.00
2022-12-28T20:19:32.911Z,18.00
2022-12-28T20:24:34.539Z,18.00
2022-12-28T20:29:36.168Z,18.00
2022-12-28T20:34:38.827Z,17.90
2022-12-28T20:39:40.469Z,17.90
2022-12-28T20:44:42.104Z,17.80
2022-12-28T20:49:43.926Z,17.70
2022-12-28T20:54:46.680Z,17.70
2022-12-28T20:59:48.399Z,17.70
2022-12-28T21:04:49.993Z,17.70
2022-12-28T21:09:51.905Z,17.60
2022-12-28T21:14:53.544Z,17.60
2022-12-28T21:19:55.198Z,17.60
2022-12-28T21:24:56.908Z,17.50
2022-12-28T21:29:58.586Z,17.50
2022-12-28T21:35:00.229Z,17.50
2022-12-28T21:40:06.330Z,17.50
2022-12-28T21:45:08.107Z,17.50
2022-12-28T21:50:10.545Z,17.40
2022-12-28T21:55:30.976Z,17.40
2022-12-28T22:00:51.024Z,17.40
2022-12-28T22:06:04.805Z,17.40
2022-12-28T22:11:24.850Z,17.30
2022-12-28T22:16:26.660Z,17.30
2022-12-28T22:21:28.286Z,17.30
2022-12-28T22:26:30.026Z,17.30
2022-12-28T22:31:31.764Z,17.30
2022-12-28T22:36:33.555Z,17.30
2022-12-28T22:41:35.192Z,17.30
2022-12-28T22:46:36.826Z,17.20
2022-12-28T22:51:38.567Z,17.20
2022-12-28T22:56:40.301Z,17.20
2022-12-28T23:01:42.174Z,17.20
2022-12-28T23:06:44.298Z,17.20
2022-12-28T23:11:45.903Z,17.20
2022-12-28T23:16:48.170Z,17.20
2022-12-28T23:22:08.176Z,17.10
2022-12-28T23:27:21.651Z,17.10
2022-12-28T23:32:23.409Z,17.10
2022-12-28T23:37:25.037Z,17.10
2022-12-28T23:42:26.815Z,17.10
2022-12-28T23:47:28.619Z,17.10
2022-12-28T23:52:30.565Z,17.10
2022-12-28T23:57:32.155Z,17.10
